Hovedside
METAR-TAF:

METAR-TAF

Lufthavner :

Miho-Yonago, Japan

breddegrad: 35-29N, lengdegrad: 133-15E, høyde over havet: 6 m

Gjeldene værobservasjon

Denne rapporten ble laget for 59 minutter siden, klokken 04:00 UTC
Vind 9 kt fra Nordøst
Temperatur 22°C
Luftfuktighet 60%
Trykk 1013 hPa
Sikt 10 km eller mer
Få skyer i en høyde av 3000 ft

METAR: RJOH 290400Z 05009KT 9999 FEW030 22/14 Q1013

Tid: 13:59 (04:59 UTC)

Varsel

Denne rapporten ble laget for 5 timer og 54 minutter siden, klokken 23:05 UTC
Varsel gyldig fra 29. klokken 00 UTC til 30. klokken 06 UTC
Vind 10 kt fra Øst-nordøst
Sikt 10 km eller mer
Få skyer i en høyde av 3000 ft
Blir
fra 29. klokken 12 UTC til 29. klokken 15 UTC
Vind 5 kt fra Sør
Blir
fra 30. klokken 00 UTC til 30. klokken 03 UTC
Vind 10 kt fra Nordøst

TAF: RJOH 282305Z 2900/3006 06010KT 9999 FEW030 BECMG 2912/2915 18005KT BECMG 3000/3003 05010KT

Værobservasjoner og værvarsel for over 4000 flyplasser (METAR- og TAF-rapporter).

Tilgjengelige stasjoner er representert av de røde og gule prikkene på kartet.

Hold musepekeren over prikken for å se navnet på stasjonen.

Klikk så for å se værobservasjoner og -varsler.

For å forandre kartet kan du klikke på den grønne knappen med svart kryss for å zoome inn, på den grønne knappen med strek for å zoome ut, eller på de grønne pilene for å se tilstøtende kart.


METAR-TAF: